createdAt,value
2023-05-14T00:01:22.607Z,18.00
2023-05-14T00:06:25.805Z,17.20
2023-05-14T00:13:56.630Z,17.10
2023-05-14T00:21:30.191Z,17.50
2023-05-14T00:26:30.671Z,15.60
2023-05-14T00:29:00.722Z,17.70
2023-05-14T00:31:30.925Z,17.50
2023-05-14T00:34:01.125Z,18.60
2023-05-14T00:36:34.400Z,16.50
2023-05-14T00:39:04.477Z,15.90
2023-05-14T00:41:34.566Z,15.00
2023-05-14T00:44:04.824Z,15.20
2023-05-14T00:46:35.156Z,18.20
2023-05-14T00:49:05.399Z,16.00
2023-05-14T00:51:38.400Z,16.70
2023-05-14T00:54:09.128Z,16.80
2023-05-14T00:56:39.369Z,17.40
2023-05-14T00:59:09.649Z,17.10
2023-05-14T01:01:40.111Z,16.70
2023-05-14T01:04:11.691Z,16.70
2023-05-14T01:06:54.414Z,17.50
2023-05-14T01:09:32.671Z,17.00
2023-05-14T01:12:11.236Z,15.00
2023-05-14T01:14:46.932Z,16.60
2023-05-14T01:17:20.277Z,16.70
2023-05-14T01:19:51.754Z,17.10
2023-05-14T01:22:24.700Z,16.20
2023-05-14T01:27:32.176Z,17.30
2023-05-14T01:30:11.666Z,17.20
2023-05-14T01:32:43.630Z,14.90
2023-05-14T01:35:13.799Z,16.10
2023-05-14T01:37:48.719Z,14.50
2023-05-14T01:40:19.340Z,16.90
2023-05-14T01:42:49.586Z,14.60
2023-05-14T01:45:19.870Z,16.80
2023-05-14T01:47:50.061Z,14.50
2023-05-14T01:50:20.491Z,16.30
2023-05-14T01:52:53.706Z,14.70
2023-05-14T01:55:24.683Z,16.40
2023-05-14T01:57:54.572Z,16.00
2023-05-14T02:00:27.060Z,16.00
2023-05-14T02:02:57.496Z,16.00
2023-05-14T02:05:27.595Z,15.40
2023-05-14T02:08:00.318Z,16.80
2023-05-14T02:13:00.864Z,14.80
2023-05-14T02:15:31.058Z,16.50
2023-05-14T02:18:01.258Z,14.60
2023-05-14T02:20:31.332Z,15.10
2023-05-14T02:23:04.086Z,15.80
2023-05-14T02:25:34.178Z,16.60
2023-05-14T02:28:04.311Z,13.90
2023-05-14T02:30:34.449Z,15.70
2023-05-14T02:33:04.703Z,14.40
2023-05-14T02:35:34.879Z,15.80
2023-05-14T02:38:07.768Z,15.70
2023-05-14T02:40:39.594Z,15.40
2023-05-14T02:43:09.702Z,17.00
2023-05-14T02:45:39.793Z,16.20
2023-05-14T02:53:13.933Z,14.70
2023-05-14T02:55:44.251Z,16.10
2023-05-14T02:58:15.279Z,13.70
2023-05-14T03:00:45.195Z,15.50
2023-05-14T03:03:15.888Z,16.20
2023-05-14T03:05:46.251Z,13.20
2023-05-14T03:08:19.285Z,15.30
2023-05-14T03:10:49.552Z,15.50
2023-05-14T03:13:20.980Z,14.80
2023-05-14T03:15:55.173Z,15.30
2023-05-14T03:18:25.539Z,16.40
2023-05-14T03:20:55.782Z,15.30
2023-05-14T03:23:28.608Z,15.60
2023-05-14T03:26:01.263Z,16.60
2023-05-14T03:28:31.603Z,15.90
2023-05-14T03:31:01.760Z,16.50
2023-05-14T03:33:32.090Z,16.20
2023-05-14T03:36:02.272Z,15.30
2023-05-14T03:38:35.278Z,16.20
2023-05-14T03:43:35.875Z,15.40
2023-05-14T03:46:06.006Z,14.50
2023-05-14T03:48:36.427Z,16.30
2023-05-14T03:53:39.765Z,15.10
2023-05-14T03:56:10.083Z,15.70
2023-05-14T03:58:40.912Z,15.90
2023-05-14T04:03:41.514Z,15.40
2023-05-14T04:06:11.968Z,16.30
2023-05-14T04:11:14.985Z,13.20
2023-05-14T04:13:45.106Z,14.70
2023-05-14T04:16:15.214Z,15.40
2023-05-14T04:18:45.493Z,15.30
2023-05-14T04:21:15.740Z,15.50
2023-05-14T04:23:48.512Z,15.20
2023-05-14T04:26:18.630Z,15.70
2023-05-14T04:28:48.748Z,14.60
2023-05-14T04:31:18.970Z,16.50
2023-05-14T04:33:49.195Z,15.30
2023-05-14T04:36:19.299Z,15.50
2023-05-14T04:38:52.064Z,15.30
2023-05-14T04:41:22.149Z,14.20
2023-05-14T04:43:53.445Z,15.40
2023-05-14T04:46:23.643Z,16.30
2023-05-14T04:48:53.986Z,15.50
2023-05-14T04:51:24.045Z,16.50
2023-05-14T04:53:57.247Z,16.80
2023-05-14T04:56:28.423Z,16.10
2023-05-14T04:58:58.723Z,16.00
2023-05-14T05:01:28.895Z,16.10
2023-05-14T05:03:59.497Z,14.40
2023-05-14T05:09:02.899Z,15.80
2023-05-14T05:11:33.081Z,15.80
2023-05-14T05:14:03.198Z,15.40
2023-05-14T05:16:33.308Z,15.80
2023-05-14T05:19:03.755Z,16.20
2023-05-14T05:24:07.421Z,16.60
2023-05-14T05:26:38.167Z,13.80
2023-05-14T05:29:08.669Z,14.20
2023-05-14T05:31:39.208Z,16.50
2023-05-14T05:34:09.380Z,16.00
2023-05-14T05:36:39.491Z,16.90
2023-05-14T05:39:12.455Z,16.10
2023-05-14T05:41:42.726Z,16.60
2023-05-14T05:44:12.940Z,17.30
2023-05-14T05:46:43.090Z,16.80
2023-05-14T05:49:13.337Z,15.90
2023-05-14T05:54:16.329Z,16.50
2023-05-14T05:56:46.614Z,17.50
2023-05-14T05:59:16.860Z,17.90
2023-05-14T06:01:47.036Z,16.60
2023-05-14T06:04:17.202Z,18.50
2023-05-14T06:06:47.325Z,17.20
2023-05-14T06:09:20.013Z,17.70
2023-05-14T06:11:50.134Z,17.20
2023-05-14T06:14:20.291Z,16.40
2023-05-14T06:16:50.543Z,16.60
2023-05-14T06:19:20.783Z,17.00
2023-05-14T06:24:23.762Z,18.50
2023-05-14T06:26:53.840Z,17.70
2023-05-14T06:29:23.999Z,16.50
2023-05-14T06:31:54.124Z,17.80
2023-05-14T06:34:24.397Z,16.90
2023-05-14T06:36:54.496Z,18.80
2023-05-14T06:39:27.272Z,17.60
2023-05-14T06:41:57.371Z,17.10
2023-05-14T06:44:27.483Z,18.50
2023-05-14T06:46:57.587Z,18.20
2023-05-14T06:49:27.698Z,18.50
2023-05-14T06:54:31.318Z,17.90
2023-05-14T06:57:01.379Z,16.70
2023-05-14T06:59:31.530Z,18.70
2023-05-14T07:02:01.619Z,16.60
2023-05-14T07:07:02.419Z,17.90
2023-05-14T07:09:35.136Z,18.90
2023-05-14T07:12:05.352Z,19.30
2023-05-14T07:14:35.564Z,18.30
2023-05-14T07:17:05.810Z,19.00
2023-05-14T07:19:35.976Z,17.60
2023-05-14T07:22:06.228Z,17.90
2023-05-14T07:24:38.962Z,20.10
2023-05-14T07:27:09.263Z,20.30
2023-05-14T07:29:39.598Z,20.60
2023-05-14T07:32:09.725Z,20.60
2023-05-14T07:34:39.998Z,20.50
2023-05-14T07:37:10.480Z,21.70
2023-05-14T07:39:43.137Z,19.70
2023-05-14T07:42:21.906Z,19.60
2023-05-14T07:44:58.361Z,21.60
2023-05-14T07:47:28.527Z,20.30
2023-05-14T07:49:59.321Z,20.90
2023-05-14T07:52:29.112Z,19.40
2023-05-14T07:55:01.823Z,19.50
2023-05-14T07:57:31.892Z,19.80
2023-05-14T08:00:02.006Z,18.30
2023-05-14T08:02:32.266Z,20.30
2023-05-14T08:05:02.517Z,18.90
2023-05-14T08:07:33.815Z,19.70
2023-05-14T08:10:07.959Z,20.20
2023-05-14T08:12:38.089Z,20.00
2023-05-14T08:15:10.604Z,20.70
2023-05-14T08:17:40.921Z,20.10
2023-05-14T08:20:12.562Z,20.60
2023-05-14T08:25:15.942Z,20.80
2023-05-14T08:27:46.078Z,20.80
2023-05-14T08:30:18.140Z,20.90
2023-05-14T08:32:48.322Z,20.50
2023-05-14T08:35:19.224Z,21.10
2023-05-14T08:37:50.392Z,19.90
2023-05-14T08:40:23.772Z,20.90
2023-05-14T08:42:54.967Z,20.60
2023-05-14T08:45:34.489Z,22.00
2023-05-14T08:48:09.239Z,22.00
2023-05-14T08:50:39.542Z,24.30
2023-05-14T08:53:09.903Z,22.60
2023-05-14T08:55:42.759Z,23.20
2023-05-14T08:58:12.825Z,24.70
2023-05-14T09:00:43.485Z,25.60
2023-05-14T09:03:15.397Z,26.00
2023-05-14T09:05:45.965Z,26.70
2023-05-14T09:08:16.108Z,26.90
2023-05-14T09:10:51.610Z,26.40
2023-05-14T09:13:21.753Z,26.70
2023-05-14T09:15:51.914Z,26.80
2023-05-14T09:18:22.155Z,26.40
2023-05-14T09:20:52.922Z,26.40
2023-05-14T09:23:22.982Z,27.00
2023-05-14T09:25:56.396Z,27.10
2023-05-14T09:28:28.258Z,28.10
2023-05-14T09:30:58.551Z,28.60
2023-05-14T09:33:33.061Z,28.40
2023-05-14T09:36:04.184Z,28.20
2023-05-14T09:38:34.723Z,28.50
2023-05-14T09:41:07.655Z,29.10
2023-05-14T09:43:37.780Z,29.20
2023-05-14T09:46:08.244Z,29.10
2023-05-14T09:48:41.125Z,29.20
2023-05-14T09:51:13.121Z,29.50
2023-05-14T09:53:43.295Z,29.50
2023-05-14T09:56:16.761Z,29.20
2023-05-14T09:58:46.884Z,28.80
2023-05-14T10:01:19.839Z,28.90
2023-05-14T10:03:50.088Z,28.50
2023-05-14T10:06:25.097Z,29.80
2023-05-14T10:08:58.679Z,29.80
2023-05-14T10:11:35.975Z,30.20
2023-05-14T10:14:09.502Z,30.20
2023-05-14T10:16:43.913Z,30.70
2023-05-14T10:19:15.050Z,30.90
2023-05-14T10:21:50.230Z,30.90
2023-05-14T10:24:22.321Z,31.10
2023-05-14T10:26:55.612Z,30.90
2023-05-14T10:29:35.943Z,31.70
2023-05-14T10:32:09.516Z,31.70
2023-05-14T10:34:41.043Z,31.80
2023-05-14T10:37:13.603Z,32.30
2023-05-14T10:39:48.264Z,32.50
2023-05-14T10:42:23.575Z,32.80
2023-05-14T10:44:58.940Z,32.80
2023-05-14T10:47:29.950Z,32.70
2023-05-14T10:50:01.750Z,32.70
2023-05-14T10:52:33.058Z,33.20
2023-05-14T10:55:04.273Z,33.10
2023-05-14T10:57:39.923Z,33.40
2023-05-14T11:00:11.574Z,33.60
2023-05-14T11:02:43.188Z,34.10
